Time;durP1;ratioP1;P1;durP2;ratioP2;P2;SDS_P1;SDS_P2;PMS_P1;PMS_P2;Temp;Humidity;BMP_temperature;BMP_pressure;BME280_temperature;BME280_humidity;BME280_pressure;Samples;Min_cycle;Max_cycle;Signal;HPM_P1;HPM_P2
2022/10/18 00:00:42;;;;;;;122.35;23.33;;;12.20;99.90;;;;;;4914251;29;20447;-77
2022/10/18 00:03:08;;;;;;;134.85;24.00;;;12.20;99.90;;;;;;4929493;29;20044;-76
2022/10/18 00:05:34;;;;;;;88.18;20.30;;;12.20;99.90;;;;;;4910354;29;20504;-76
2022/10/18 00:08:00;;;;;;;172.88;30.58;;;12.10;99.90;;;;;;4916641;29;20040;-77
2022/10/18 00:10:26;;;;;;;55.17;20.27;;;12.10;99.90;;;;;;4932622;29;20040;-76
2022/10/18 00:12:51;;;;;;;54.42;19.73;;;12.00;99.90;;;;;;4932058;29;20039;-77
2022/10/18 00:15:17;;;;;;;80.53;24.35;;;12.00;99.90;;;;;;4908882;29;20447;-76
2022/10/18 00:17:43;;;;;;;58.97;23.58;;;11.90;99.90;;;;;;4938808;29;20091;-76
2022/10/18 00:20:09;;;;;;;92.32;24.45;;;11.90;99.90;;;;;;4949709;28;20502;-77
2022/10/18 00:22:37;;;;;;;55.25;20.88;;;11.90;99.90;;;;;;4936207;29;20134;-77
2022/10/18 00:25:04;;;;;;;92.55;26.58;;;11.90;99.90;;;;;;4935620;29;20101;-76
2022/10/18 00:27:31;;;;;;;62.78;24.25;;;11.90;99.90;;;;;;4949334;28;20130;-76
2022/10/18 00:29:56;;;;;;;101.97;24.00;;;11.90;99.90;;;;;;4949127;29;20092;-76
2022/10/18 00:32:22;;;;;;;94.70;27.30;;;11.90;99.90;;;;;;4924277;29;20040;-77
2022/10/18 00:34:47;;;;;;;83.25;26.45;;;11.90;99.90;;;;;;4927028;29;20031;-76
2022/10/18 00:37:13;;;;;;;81.93;25.27;;;11.80;99.90;;;;;;4941293;29;20052;-76
2022/10/18 00:39:39;;;;;;;52.33;23.70;;;11.80;99.90;;;;;;4942946;29;20036;-76
2022/10/18 00:42:04;;;;;;;91.88;23.30;;;11.80;99.90;;;;;;4916159;29;20051;-77
2022/10/18 00:44:30;;;;;;;61.90;21.35;;;11.80;99.90;;;;;;4930423;29;20495;-76
2022/10/18 00:47:02;;;;;;;77.70;23.73;;;11.80;99.90;;;;;;4927491;29;20106;-77
2022/10/18 00:49:38;;;;;;;99.15;24.98;;;11.80;99.90;;;;;;4935482;29;20534;-76
2022/10/18 00:52:08;;;;;;;75.40;22.40;;;11.80;99.90;;;;;;4920687;29;20394;-77
2022/10/18 00:54:39;;;;;;;54.75;24.23;;;11.80;99.90;;;;;;4909480;29;20471;-77
2022/10/18 00:57:05;;;;;;;94.38;30.38;;;11.70;99.90;;;;;;4934949;29;20051;-77
2022/10/18 00:59:32;;;;;;;120.10;31.98;;;11.70;99.90;;;;;;4935625;29;20511;-76
2022/10/18 01:01:57;;;;;;;107.32;28.63;;;11.80;99.90;;;;;;4928453;29;20039;-77
2022/10/18 01:04:23;;;;;;;223.63;39.10;;;11.80;99.90;;;;;;4901632;29;20419;-76
2022/10/18 01:07:15;;;;;;;70.50;27.80;;;11.80;99.90;;;;;;4906835;29;20180;-77
2022/10/18 01:10:14;;;;;;;76.50;28.67;;;11.90;99.90;;;;;;4930310;29;20039;-77
2022/10/18 01:13:31;;;;;;;107.20;31.73;;;11.90;99.90;;;;;;4935121;29;20031;-77
2022/10/18 01:16:02;;;;;;;96.82;29.33;;;11.90;99.90;;;;;;4916702;29;20447;-77
2022/10/18 01:18:48;;;;;;;166.15;36.58;;;11.80;99.90;;;;;;4919253;29;20421;-77
2022/10/18 01:21:20;;;;;;;175.48;37.67;;;11.80;99.90;;;;;;4933866;29;20484;-77
2022/10/18 01:24:04;;;;;;;181.25;36.10;;;11.80;99.90;;;;;;4950918;29;20062;-77
2022/10/18 01:26:39;;;;;;;68.32;28.00;;;11.80;99.90;;;;;;4924365;29;20044;-76
2022/10/18 01:29:45;;;;;;;171.15;38.17;;;11.80;99.90;;;;;;4915350;29;21658;-76
2022/10/18 01:32:33;;;;;;;120.03;32.00;;;11.80;99.90;;;;;;4932520;29;20047;-77
2022/10/18 01:35:03;;;;;;;212.30;36.90;;;11.80;99.90;;;;;;4918234;29;20520;-76
2022/10/18 01:37:30;;;;;;;160.52;34.08;;;11.90;99.90;;;;;;4913132;29;20048;-77
2022/10/18 01:39:58;;;;;;;202.93;37.60;;;11.80;99.90;;;;;;4923279;29;20529;-77
2022/10/18 01:42:24;;;;;;;232.30;41.45;;;11.70;99.90;;;;;;4915741;29;20044;-76
2022/10/18 01:44:51;;;;;;;83.32;29.00;;;11.70;99.90;;;;;;4931501;29;20040;-76
2022/10/18 01:47:18;;;;;;;128.48;29.10;;;11.70;99.90;;;;;;4925649;29;20043;-77
2022/10/18 01:49:44;;;;;;;167.80;33.08;;;11.70;99.90;;;;;;4942860;29;20446;-76
2022/10/18 01:52:14;;;;;;;337.70;44.85;;;11.70;99.90;;;;;;4931526;29;20070;-76
2022/10/18 01:54:44;;;;;;;343.55;44.83;;;11.60;99.90;;;;;;4929635;29;20085;-76
2022/10/18 01:57:21;;;;;;;306.63;43.40;;;11.60;99.90;;;;;;4910529;29;20055;-76
2022/10/18 02:00:18;;;;;;;216.90;38.05;;;11.70;99.90;;;;;;4968323;23;20166;-77
2022/10/18 02:03:02;;;;;;;166.23;33.45;;;11.60;99.90;;;;;;4955364;28;20475;-77
2022/10/18 02:05:57;;;;;;;109.68;26.30;;;11.60;99.90;;;;;;4948386;28;20039;-77
2022/10/18 02:08:42;;;;;;;106.55;26.33;;;11.60;99.90;;;;;;4948223;28;20136;-77
2022/10/18 02:11:11;;;;;;;62.63;21.70;;;11.60;99.90;;;;;;4955922;28;20158;-77
2022/10/18 02:13:44;;;;;;;164.43;34.30;;;11.50;99.90;;;;;;4955825;28;20126;-77
2022/10/18 02:16:15;;;;;;;146.05;32.60;;;11.50;99.90;;;;;;4954509;28;20086;-77
2022/10/18 02:18:55;;;;;;;131.88;31.42;;;11.50;99.90;;;;;;4949555;28;20511;-77
2022/10/18 02:21:24;;;;;;;106.72;28.60;;;11.40;99.90;;;;;;4955019;28;20043;-77
2022/10/18 02:23:51;;;;;;;105.18;29.42;;;11.50;99.90;;;;;;4955604;28;20055;-78
2022/10/18 02:26:17;;;;;;;133.90;31.45;;;11.50;99.90;;;;;;4952977;28;20126;-77
2022/10/18 02:28:44;;;;;;;56.35;24.40;;;11.50;99.90;;;;;;4968657;28;20382;-77
2022/10/18 02:31:34;;;;;;;85.03;27.92;;;11.50;99.90;;;;;;4955327;28;20039;-77
2022/10/18 02:34:20;;;;;;;78.80;27.52;;;11.50;99.90;;;;;;4955135;28;20042;-77
2022/10/18 02:36:51;;;;;;;142.15;31.92;;;11.40;99.90;;;;;;4954571;28;20038;-77
2022/10/18 02:39:29;;;;;;;69.78;26.52;;;11.40;99.90;;;;;;4954692;28;20101;-77
2022/10/18 02:41:56;;;;;;;100.22;28.23;;;11.40;99.90;;;;;;4953517;28;20405;-77
2022/10/18 02:44:35;;;;;;;127.63;31.40;;;11.40;99.90;;;;;;4955708;28;20434;-77
2022/10/18 02:47:01;;;;;;;89.60;27.73;;;11.40;99.90;;;;;;4954522;28;20045;-77
2022/10/18 02:49:28;;;;;;;154.60;30.35;;;11.40;99.90;;;;;;4955256;28;20062;-77
2022/10/18 02:52:00;;;;;;;139.20;31.45;;;11.40;99.90;;;;;;4954845;28;20049;-77
2022/10/18 02:54:26;;;;;;;99.10;27.73;;;11.40;99.90;;;;;;4952268;28;20038;-77
2022/10/18 02:56:54;;;;;;;50.92;23.83;;;11.40;99.90;;;;;;4955020;28;20047;-77
2022/10/18 02:59:20;;;;;;;52.40;23.77;;;11.40;99.90;;;;;;4954832;28;20046;-77
2022/10/18 03:01:49;;;;;;;90.00;29.73;;;11.30;99.90;;;;;;4955255;28;20051;-77
2022/10/18 03:04:15;;;;;;;80.18;28.27;;;11.40;99.90;;;;;;4954885;28;20117;-77
2022/10/18 03:06:44;;;;;;;74.45;27.30;;;11.40;99.90;;;;;;4953851;28;20082;-78
2022/10/18 03:09:10;;;;;;;89.53;28.52;;;11.40;99.90;;;;;;4952733;28;20438;-77
2022/10/18 03:11:36;;;;;;;107.10;29.77;;;11.40;99.90;;;;;;4970755;28;20039;-77
2022/10/18 03:14:02;;;;;;;112.40;29.83;;;11.40;99.90;;;;;;4954575;28;20034;-77
2022/10/18 03:16:27;;;;;;;118.70;31.10;;;11.40;99.90;;;;;;4953709;28;20039;-77
2022/10/18 03:18:53;;;;;;;98.50;28.33;;;11.40;99.90;;;;;;4954853;28;20049;-77
2022/10/18 03:21:19;;;;;;;72.35;24.38;;;11.40;99.90;;;;;;4954825;28;20047;-77
2022/10/18 03:23:45;;;;;;;101.32;28.50;;;11.40;99.90;;;;;;4969305;28;20035;-77
2022/10/18 03:26:13;;;;;;;77.88;26.30;;;11.40;99.90;;;;;;4954208;28;20639;-77
2022/10/18 03:28:39;;;;;;;87.00;26.92;;;11.40;99.90;;;;;;4954673;28;20050;-78
2022/10/18 03:31:05;;;;;;;44.17;21.90;;;11.40;99.90;;;;;;4955757;28;20437;-77
2022/10/18 03:33:34;;;;;;;98.00;27.50;;;11.40;99.90;;;;;;4954066;28;20045;-77
2022/10/18 03:36:03;;;;;;;220.05;37.47;;;11.40;99.90;;;;;;4953817;28;20051;-77
2022/10/18 03:38:31;;;;;;;114.78;30.60;;;11.40;99.90;;;;;;4954263;28;20478;-77
2022/10/18 03:41:00;;;;;;;94.25;29.50;;;11.40;99.90;;;;;;4954323;28;20046;-77
2022/10/18 03:43:28;;;;;;;88.88;29.98;;;11.40;99.90;;;;;;4970090;28;20378;-77
2022/10/18 03:45:57;;;;;;;154.20;32.80;;;11.40;99.90;;;;;;4954749;28;20164;-76
2022/10/18 03:48:23;;;;;;;102.28;28.67;;;11.40;99.90;;;;;;4953549;28;20437;-77
2022/10/18 03:50:49;;;;;;;135.85;31.30;;;11.40;99.90;;;;;;4954451;28;20051;-77
2022/10/18 03:53:15;;;;;;;117.18;30.40;;;11.40;99.90;;;;;;4953921;28;20050;-77
2022/10/18 03:55:41;;;;;;;93.40;29.20;;;11.40;99.90;;;;;;4973921;28;20031;-77
2022/10/18 03:58:07;;;;;;;71.53;28.33;;;11.40;99.90;;;;;;4957276;28;20047;-77
2022/10/18 04:00:35;;;;;;;111.93;32.28;;;11.40;99.90;;;;;;4956951;28;20042;-77
2022/10/18 04:03:02;;;;;;;80.82;29.88;;;11.40;99.90;;;;;;4957582;28;20047;-77
2022/10/18 04:05:29;;;;;;;125.05;35.22;;;11.40;99.90;;;;;;4957149;28;20043;-77
2022/10/18 04:07:55;;;;;;;117.63;31.70;;;11.40;99.90;;;;;;4957848;28;20070;-77
2022/10/18 04:10:22;;;;;;;107.30;32.38;;;11.40;99.90;;;;;;4958087;28;20043;-77
2022/10/18 04:12:48;;;;;;;142.55;35.85;;;11.40;99.90;;;;;;4957253;28;20041;-77
2022/10/18 04:15:16;;;;;;;101.03;31.23;;;11.40;99.90;;;;;;4956339;28;20039;-77
2022/10/18 04:17:42;;;;;;;118.38;32.00;;;11.40;99.90;;;;;;4957844;28;20449;-77
2022/10/18 04:20:08;;;;;;;145.60;35.30;;;11.40;99.90;;;;;;4957852;28;20043;-77
2022/10/18 04:22:34;;;;;;;167.38;36.22;;;11.40;99.90;;;;;;4957963;28;20404;-77
2022/10/18 04:25:00;;;;;;;118.00;34.38;;;11.40;99.90;;;;;;4956840;28;20043;-77
2022/10/18 04:27:28;;;;;;;128.38;34.78;;;11.40;99.90;;;;;;4957381;28;20113;-77
2022/10/18 04:29:56;;;;;;;106.40;32.75;;;11.40;99.90;;;;;;4956604;28;20123;-77
2022/10/18 04:32:22;;;;;;;178.25;37.97;;;11.50;99.90;;;;;;4957780;28;20073;-77
2022/10/18 04:34:48;;;;;;;217.05;38.20;;;11.50;99.90;;;;;;4972939;28;20039;-77
2022/10/18 04:37:16;;;;;;;128.45;35.20;;;11.50;99.90;;;;;;4956641;28;20030;-77
2022/10/18 04:39:45;;;;;;;115.55;33.75;;;11.50;99.90;;;;;;4955274;28;20037;-77
2022/10/18 04:42:11;;;;;;;81.50;30.98;;;11.50;99.90;;;;;;4956702;28;20039;-78
2022/10/18 04:44:37;;;;;;;103.95;34.42;;;11.50;99.90;;;;;;4972232;28;20497;-77
2022/10/18 04:47:06;;;;;;;121.00;33.78;;;11.60;99.90;;;;;;4956682;28;20043;-77
2022/10/18 04:49:32;;;;;;;106.03;33.22;;;11.60;99.90;;;;;;4957285;28;20065;-77
2022/10/18 04:51:58;;;;;;;155.57;36.20;;;11.60;99.90;;;;;;4957723;28;20043;-77
2022/10/18 04:54:24;;;;;;;183.73;39.00;;;11.60;99.90;;;;;;4955953;28;20482;-77
2022/10/18 04:56:49;;;;;;;181.10;37.63;;;11.60;99.90;;;;;;4957124;28;20096;-77
2022/10/18 04:59:18;;;;;;;229.27;40.33;;;11.60;99.90;;;;;;4954878;28;20074;-77
2022/10/18 05:01:47;;;;;;;109.22;33.70;;;11.70;99.90;;;;;;4969513;28;20043;-77
2022/10/18 05:04:12;;;;;;;204.07;37.92;;;11.60;99.90;;;;;;4971202;28;20126;-77
2022/10/18 05:06:38;;;;;;;129.02;33.58;;;11.70;99.90;;;;;;4955996;28;20474;-77
2022/10/18 05:09:05;;;;;;;134.00;32.65;;;11.60;99.90;;;;;;4956655;28;20045;-77
2022/10/18 05:11:30;;;;;;;127.90;31.67;;;11.60;99.90;;;;;;4970089;28;20398;-77
2022/10/18 05:13:56;;;;;;;104.45;31.15;;;11.60;99.90;;;;;;4955803;28;20051;-77
2022/10/18 05:16:22;;;;;;;129.27;32.67;;;11.70;99.90;;;;;;4972079;28;20035;-77
2022/10/18 05:18:48;;;;;;;152.75;33.55;;;11.60;99.90;;;;;;4972253;28;20039;-77
2022/10/18 05:21:14;;;;;;;126.93;31.50;;;11.60;99.90;;;;;;4972781;28;20445;-77
2022/10/18 05:23:46;;;;;;;143.25;33.47;;;11.60;99.90;;;;;;4956853;28;20049;-78
2022/10/18 05:26:12;;;;;;;145.80;32.47;;;11.60;99.90;;;;;;4971708;28;20042;-77
2022/10/18 05:28:38;;;;;;;125.75;29.10;;;11.70;99.90;;;;;;4972337;28;20129;-77
2022/10/18 05:31:06;;;;;;;116.25;30.60;;;11.60;99.90;;;;;;4956659;28;20050;-77
2022/10/18 05:33:34;;;;;;;125.47;29.70;;;11.60;99.90;;;;;;4955925;28;20080;-77
2022/10/18 05:36:02;;;;;;;158.82;32.25;;;11.60;99.90;;;;;;4969348;28;20050;-77
2022/10/18 05:38:31;;;;;;;116.43;28.95;;;11.60;99.90;;;;;;4956356;28;20057;-77
2022/10/18 05:40:57;;;;;;;75.72;25.33;;;11.60;99.90;;;;;;4955774;28;20505;-77
2022/10/18 05:43:27;;;;;;;106.82;26.95;;;11.60;99.90;;;;;;4954583;28;20043;-77
2022/10/18 05:45:59;;;;;;;163.95;31.58;;;11.60;99.90;;;;;;4972076;28;20039;-78
2022/10/18 05:48:28;;;;;;;162.23;30.25;;;11.60;99.90;;;;;;4956508;28;20046;-76
2022/10/18 05:50:58;;;;;;;132.10;27.38;;;11.60;99.90;;;;;;4956719;28;20053;-77
2022/10/18 05:53:23;;;;;;;68.10;24.45;;;11.60;99.90;;;;;;4968590;28;20374;-76
2022/10/18 05:55:49;;;;;;;83.60;24.10;;;11.50;99.90;;;;;;4955612;28;20042;-77
2022/10/18 05:58:15;;;;;;;136.65;28.00;;;11.50;99.90;;;;;;4955350;28;20417;-76
2022/10/18 06:00:41;;;;;;;107.68;26.15;;;11.40;99.90;;;;;;4954554;28;20060;-78
2022/10/18 06:03:06;;;;;;;114.43;27.25;;;11.50;99.90;;;;;;4971076;28;20413;-75
2022/10/18 06:05:32;;;;;;;96.95;24.60;;;11.50;99.90;;;;;;4955763;28;20080;-75
2022/10/18 06:07:58;;;;;;;135.20;28.00;;;11.40;99.90;;;;;;4954147;28;20065;-76
2022/10/18 06:10:24;;;;;;;106.95;27.13;;;11.40;99.90;;;;;;4967328;28;20027;-76
2022/10/18 06:12:52;;;;;;;173.68;35.17;;;11.40;99.90;;;;;;4954358;28;20112;-77
2022/10/18 06:15:20;;;;;;;114.00;29.70;;;11.40;99.90;;;;;;4954988;28;20034;-76
2022/10/18 06:17:48;;;;;;;119.35;31.85;;;11.30;99.90;;;;;;4959462;28;20073;-76
2022/10/18 06:20:14;;;;;;;143.10;33.28;;;11.30;99.90;;;;;;4958832;28;20486;-76
2022/10/18 06:22:40;;;;;;;110.85;28.95;;;11.20;99.90;;;;;;4959002;28;20078;-77
2022/10/18 06:25:08;;;;;;;181.13;35.13;;;11.30;99.90;;;;;;4956438;28;20054;-77
2022/10/18 06:27:34;;;;;;;150.93;31.67;;;11.20;99.90;;;;;;4956095;28;20053;-76
2022/10/18 06:30:00;;;;;;;140.50;30.55;;;11.10;99.90;;;;;;4965588;28;20053;-76
2022/10/18 06:32:25;;;;;;;157.52;30.98;;;11.20;99.90;;;;;;4954779;28;20437;-76
2022/10/18 06:34:56;;;;;;;113.00;25.55;;;11.20;99.90;;;;;;4952469;28;20061;-78
2022/10/18 06:37:24;;;;;;;150.02;30.75;;;11.10;99.90;;;;;;4951178;28;20129;-77
2022/10/18 06:39:50;;;;;;;101.07;25.73;;;11.10;99.90;;;;;;4952915;28;20043;-77
2022/10/18 06:42:16;;;;;;;198.88;29.42;;;11.10;99.90;;;;;;4955041;28;20378;-77
2022/10/18 06:44:41;;;;;;;151.00;26.23;;;11.20;99.90;;;;;;4971670;28;20039;-77
2022/10/18 06:47:10;;;;;;;73.25;19.83;;;11.10;99.90;;;;;;4971131;28;20057;-78
2022/10/18 06:49:39;;;;;;;116.85;23.33;;;11.10;99.90;;;;;;4955368;28;20430;-77
2022/10/18 06:52:06;;;;;;;121.30;24.48;;;11.20;99.90;;;;;;4955731;28;20047;-77
2022/10/18 06:54:32;;;;;;;177.02;27.38;;;11.10;99.90;;;;;;4955491;28;20536;-77
2022/10/18 06:57:03;;;;;;;120.10;22.52;;;11.10;99.90;;;;;;4953516;28;20038;-78
2022/10/18 06:59:37;;;;;;;100.50;21.88;;;11.10;99.90;;;;;;4950608;28;20385;-79
2022/10/18 07:02:15;;;;;;;118.25;23.20;;;11.10;99.90;;;;;;4970522;28;20047;-77
2022/10/18 07:04:50;;;;;;;114.22;23.10;;;11.20;99.90;;;;;;4954843;28;20042;-77
2022/10/18 07:07:20;;;;;;;154.45;26.95;;;11.10;99.90;;;;;;4948618;28;20042;-79
2022/10/18 07:09:56;;;;;;;97.03;21.27;;;11.20;99.90;;;;;;4952788;28;20046;-78
2022/10/18 07:12:30;;;;;;;88.13;19.58;;;11.00;99.90;;;;;;4951300;28;20049;-77
2022/10/18 07:14:56;;;;;;;132.93;22.50;;;11.10;99.90;;;;;;4964080;28;20466;-77
2022/10/18 07:17:21;;;;;;;96.72;20.85;;;11.10;99.90;;;;;;4952647;28;20097;-77
2022/10/18 07:19:47;;;;;;;147.80;23.35;;;11.10;99.90;;;;;;4972293;28;20520;-79
2022/10/18 07:22:13;;;;;;;138.70;23.17;;;11.10;99.90;;;;;;4955736;28;20128;-78
2022/10/18 07:24:39;;;;;;;131.55;22.95;;;11.20;99.90;;;;;;4952270;28;20162;-78
2022/10/18 07:27:06;;;;;;;107.80;21.45;;;11.20;99.90;;;;;;4953789;28;20071;-77
2022/10/18 07:29:37;;;;;;;94.97;20.30;;;11.20;99.90;;;;;;4955482;28;20031;-78
2022/10/18 07:32:03;;;;;;;215.48;28.90;;;11.20;99.90;;;;;;4957934;28;20043;-76
2022/10/18 07:34:32;;;;;;;113.78;20.90;;;11.20;99.90;;;;;;4957895;28;20035;-78
2022/10/18 07:37:04;;;;;;;136.82;23.95;;;11.20;99.90;;;;;;4957953;28;20076;-78
2022/10/18 07:39:30;;;;;;;99.97;20.48;;;11.20;99.90;;;;;;4956848;28;20039;-77
2022/10/18 07:41:56;;;;;;;144.75;23.25;;;11.20;99.90;;;;;;4955659;28;20484;-78
2022/10/18 07:44:22;;;;;;;100.55;18.13;;;11.20;99.90;;;;;;4958393;28;20142;-78
2022/10/18 07:46:48;;;;;;;143.77;22.73;;;11.20;99.90;;;;;;4958613;28;20066;-78
2022/10/18 07:49:13;;;;;;;133.85;23.75;;;11.20;99.90;;;;;;4974624;28;20058;-78
2022/10/18 07:51:39;;;;;;;154.90;24.95;;;11.20;99.90;;;;;;4959158;28;20070;-78
2022/10/18 07:54:08;;;;;;;234.13;30.42;;;11.30;99.90;;;;;;4958703;28;20537;-78
2022/10/18 07:56:34;;;;;;;221.13;29.67;;;11.30;99.90;;;;;;4957461;28;20031;-78
2022/10/18 07:59:00;;;;;;;85.63;18.95;;;11.40;99.90;;;;;;4958166;28;20035;-78
2022/10/18 08:01:25;;;;;;;222.13;28.85;;;11.40;99.90;;;;;;4928097;23;20076;-78
2022/10/18 08:03:52;;;;;;;114.68;22.15;;;11.50;99.90;;;;;;4916846;29;20548;-79
2022/10/18 08:06:19;;;;;;;164.95;28.55;;;11.60;99.90;;;;;;4916597;29;20067;-77
2022/10/18 08:08:45;;;;;;;100.53;22.60;;;11.60;99.90;;;;;;4913298;29;20184;-77
2022/10/18 08:11:17;;;;;;;85.45;21.10;;;11.80;99.90;;;;;;4916703;29;20510;-77
2022/10/18 08:13:42;;;;;;;231.20;31.38;;;11.80;99.90;;;;;;4931840;29;20039;-77
2022/10/18 08:16:14;;;;;;;405.33;42.03;;;11.90;99.90;;;;;;4929934;29;20036;-78
2022/10/18 08:18:40;;;;;;;100.78;22.23;;;11.90;99.90;;;;;;4932386;29;20127;-78
2022/10/18 08:21:08;;;;;;;86.60;21.80;;;12.00;99.90;;;;;;4930796;29;20411;-77
2022/10/18 08:23:35;;;;;;;73.50;21.60;;;12.10;99.90;;;;;;4915675;29;20071;-77
2022/10/18 08:26:08;;;;;;;175.02;27.67;;;12.10;99.90;;;;;;4899962;29;20393;-78
2022/10/18 08:28:35;;;;;;;73.60;22.40;;;12.20;99.90;;;;;;4894704;29;20127;-77
2022/10/18 08:31:06;;;;;;;26.17;15.32;;;12.30;99.90;;;;;;4932499;29;20044;-77
2022/10/18 08:33:34;;;;;;;45.88;19.00;;;12.30;99.90;;;;;;4913491;29;20044;-78
2022/10/18 08:36:04;;;;;;;68.07;20.50;;;12.30;99.90;;;;;;4912809;29;20095;-78
2022/10/18 08:38:30;;;;;;;56.88;19.17;;;12.30;99.90;;;;;;4914722;29;20043;-78
2022/10/18 08:41:00;;;;;;;42.47;16.92;;;12.30;99.90;;;;;;4931741;29;20048;-79
2022/10/18 08:43:35;;;;;;;40.28;16.33;;;12.40;99.90;;;;;;4920855;29;20045;-78
2022/10/18 08:46:02;;;;;;;72.68;19.33;;;12.40;99.90;;;;;;4912788;29;20047;-79
2022/10/18 08:48:41;;;;;;;49.65;20.15;;;12.40;99.90;;;;;;4931465;29;20122;-79
2022/10/18 08:51:23;;;;;;;26.98;16.10;;;12.50;99.90;;;;;;4929785;29;20178;-78
2022/10/18 08:54:21;;;;;;;20.17;14.68;;;12.60;99.90;;;;;;4915158;29;20550;-79
2022/10/18 08:57:00;;;;;;;55.38;20.30;;;12.70;99.90;;;;;;4897067;29;20122;-79
2022/10/18 08:59:31;;;;;;;32.72;18.02;;;12.70;99.90;;;;;;4916510;29;20047;-79
2022/10/18 09:02:27;;;;;;;16.23;14.02;;;12.70;99.90;;;;;;4931270;29;20518;-79
2022/10/18 09:05:23;;;;;;;59.30;19.20;;;12.70;99.90;;;;;;4894469;29;20057;-79
2022/10/18 09:07:58;;;;;;;37.97;19.30;;;12.70;99.90;;;;;;4897396;29;20504;-79
2022/10/18 09:10:52;;;;;;;27.90;18.50;;;12.80;99.90;;;;;;4897734;29;20044;-79
2022/10/18 09:13:27;;;;;;;31.38;20.42;;;12.80;99.90;;;;;;4905336;29;20075;-79
2022/10/18 09:15:59;;;;;;;27.58;20.42;;;12.90;99.90;;;;;;4894119;29;20519;-79
2022/10/18 09:18:43;;;;;;;32.80;21.25;;;12.90;99.90;;;;;;4897265;29;20056;-79
2022/10/18 09:21:29;;;;;;;32.83;20.52;;;13.00;99.90;;;;;;4897502;29;20092;-79
2022/10/18 09:24:25;;;;;;;32.08;19.90;;;13.00;99.90;;;;;;4915611;29;20357;-79
2022/10/18 09:27:04;;;;;;;37.22;20.83;;;13.10;99.90;;;;;;4899381;29;20220;-79
2022/10/18 09:29:52;;;;;;;64.88;24.30;;;13.20;99.90;;;;;;4932631;29;20040;-79
2022/10/18 09:32:55;;;;;;;38.28;20.63;;;13.40;99.90;;;;;;4931976;29;20044;-80
2022/10/18 09:35:26;;;;;;;24.58;19.80;;;13.50;99.90;;;;;;4909190;29;20039;-80
2022/10/18 09:38:02;;;;;;;28.55;21.48;;;13.60;99.90;;;;;;4915839;29;20563;-80
2022/10/18 09:40:31;;;;;;;31.08;22.45;;;13.80;99.90;;;;;;4926316;29;20044;-80
2022/10/18 09:43:06;;;;;;;30.05;18.85;;;13.90;99.90;;;;;;4916219;29;20044;-80
2022/10/18 09:45:38;;;;;;;25.38;17.17;;;14.00;99.90;;;;;;4886955;29;20415;-79
2022/10/18 09:48:12;;;;;;;25.17;16.20;;;14.00;99.90;;;;;;4930252;29;20044;-79
2022/10/18 09:50:43;;;;;;;19.42;13.75;;;14.20;99.90;;;;;;4926671;29;20071;-80
2022/10/18 09:53:17;;;;;;;18.23;13.05;;;14.20;99.90;;;;;;4913111;29;20047;-78
2022/10/18 09:56:04;;;;;;;25.35;15.05;;;14.40;99.90;;;;;;4919247;29;20036;-78
2022/10/18 09:58:50;;;;;;;20.75;13.10;;;14.40;99.90;;;;;;4932072;29;20047;-77
2022/10/18 10:01:27;;;;;;;25.23;13.77;;;14.50;99.90;;;;;;4915782;29;20372;-78
2022/10/18 10:03:53;;;;;;;27.73;14.00;;;14.50;99.90;;;;;;4911783;29;20048;-78
2022/10/18 10:06:37;;;;;;;21.90;14.20;;;14.60;99.90;;;;;;4910522;29;20407;-77
2022/10/18 10:09:15;;;;;;;17.35;12.52;;;14.90;99.90;;;;;;4897109;29;20048;-78
2022/10/18 10:11:50;;;;;;;15.07;7.10;;;15.00;99.90;;;;;;4907763;29;20040;-78
2022/10/18 10:14:22;;;;;;;9.95;4.22;;;15.30;99.90;;;;;;4913764;29;20032;-78
2022/10/18 10:16:48;;;;;;;9.87;3.10;;;15.50;99.90;;;;;;4893137;29;20514;-78
2022/10/18 10:19:22;;;;;;;13.23;2.75;;;15.50;99.90;;;;;;4923424;29;20044;-77
2022/10/18 10:21:52;;;;;;;10.63;2.30;;;15.60;99.90;;;;;;4915532;29;20126;-78
2022/10/18 10:24:31;;;;;;;13.10;2.45;;;15.80;99.90;;;;;;4915939;29;20055;-78
2022/10/18 10:27:03;;;;;;;9.57;2.67;;;15.90;99.90;;;;;;4906907;29;20051;-77
2022/10/18 10:29:44;;;;;;;10.40;1.90;;;16.10;99.90;;;;;;4922538;29;20032;-77
2022/10/18 10:32:12;;;;;;;8.07;2.03;;;16.30;99.90;;;;;;4895952;29;20039;-77
2022/10/18 10:34:39;;;;;;;8.27;1.88;;;16.40;99.90;;;;;;4913687;29;20085;-78
2022/10/18 10:37:22;;;;;;;7.45;2.30;;;16.50;99.90;;;;;;4906798;29;20075;-78
2022/10/18 10:40:36;;;;;;;8.93;1.95;;;16.50;99.90;;;;;;4913959;29;20044;-78
2022/10/18 10:43:15;;;;;;;7.88;1.52;;;16.70;99.90;;;;;;4919170;29;20080;-78
2022/10/18 10:45:56;;;;;;;4.97;1.90;;;16.90;99.90;;;;;;4910715;29;20045;-78
2022/10/18 10:48:24;;;;;;;8.57;1.58;;;17.00;99.90;;;;;;4912658;29;20467;-78
2022/10/18 10:51:08;;;;;;;5.60;1.20;;;17.10;99.90;;;;;;4912510;29;20040;-78
2022/10/18 10:54:11;;;;;;;6.35;1.48;;;17.20;99.90;;;;;;4902544;29;20135;-78
2022/10/18 10:56:55;;;;;;;7.80;1.40;;;17.20;99.90;;;;;;4918052;29;20418;-78
2022/10/18 10:59:22;;;;;;;6.35;1.30;;;17.20;99.90;;;;;;4915320;29;20075;-79
2022/10/18 11:01:50;;;;;;;6.65;1.40;;;17.20;99.90;;;;;;4935476;29;20079;-79
2022/10/18 11:04:29;;;;;;;5.75;1.17;;;17.20;99.90;;;;;;4912179;29;20052;-80
2022/10/18 11:07:20;;;;;;;8.35;1.52;;;17.20;99.90;;;;;;4918940;29;20048;-78
2022/10/18 11:10:10;;;;;;;9.77;1.95;;;17.30;99.90;;;;;;4903696;29;20036;-79
2022/10/18 11:12:48;;;;;;;8.27;1.30;;;17.40;99.90;;;;;;4914252;29;20047;-79
2022/10/18 11:15:23;;;;;;;8.18;1.20;;;17.40;99.90;;;;;;4915548;29;20047;-79
2022/10/18 11:18:01;;;;;;;5.32;0.90;;;17.50;99.90;;;;;;4909608;29;20064;-80
2022/10/18 11:20:34;;;;;;;10.38;1.45;;;17.60;99.90;;;;;;4923800;29;20048;-79
2022/10/18 11:23:07;;;;;;;;;;;17.60;99.90;;;;;;4904780;29;20048;-79
2022/10/18 11:25:38;;;;;;;6.63;1.20;;;17.60;99.90;;;;;;4938239;29;19919;-79
2022/10/18 11:28:10;;;;;;;7.80;1.65;;;17.60;99.90;;;;;;4905143;29;20044;-79
2022/10/18 11:30:41;;;;;;;7.40;1.25;;;17.70;99.90;;;;;;4900261;29;20147;-79
2022/10/18 11:33:38;;;;;;;5.65;1.20;;;17.80;99.90;;;;;;4914536;29;20510;-78
2022/10/18 11:36:21;;;;;;;7.28;1.73;;;17.80;99.90;;;;;;4897198;29;20067;-78
2022/10/18 11:39:02;;;;;;;7.20;1.77;;;17.90;99.90;;;;;;4899055;29;20044;-78
2022/10/18 11:41:38;;;;;;;8.65;1.33;;;18.10;99.90;;;;;;4907744;29;20064;-78
2022/10/18 11:44:21;;;;;;;3.55;0.90;;;18.20;99.90;;;;;;4913747;29;20116;-78
2022/10/18 11:47:09;;;;;;;3.90;0.90;;;18.40;99.90;;;;;;4913932;29;20055;-78
2022/10/18 11:49:34;;;;;;;7.20;1.00;;;18.60;99.90;;;;;;4893476;29;20040;-78
2022/10/18 11:52:36;;;;;;;8.50;1.20;;;18.80;99.90;;;;;;4899222;29;20409;-78
2022/10/18 11:55:15;;;;;;;4.95;0.95;;;19.00;99.90;;;;;;4897870;29;20048;-79
2022/10/18 11:57:53;;;;;;;4.60;0.75;;;19.10;99.90;;;;;;4914683;29;20123;-78
2022/10/18 12:00:26;;;;;;;4.03;1.00;;;19.20;99.90;;;;;;4909590;29;20498;-78
2022/10/18 12:03:14;;;;;;;7.65;1.42;;;19.30;99.90;;;;;;4899641;29;20036;-78
2022/10/18 12:05:43;;;;;;;4.15;1.48;;;19.30;99.90;;;;;;4910693;29;20048;-78
2022/10/18 12:08:28;;;;;;;7.93;1.30;;;19.20;99.90;;;;;;4931036;29;20091;-78
2022/10/18 12:10:56;;;;;;;5.97;1.30;;;19.00;99.90;;;;;;4915631;29;20070;-78
2022/10/18 12:13:47;;;;;;;6.15;0.98;;;18.90;99.90;;;;;;4899839;29;20048;-78
2022/10/18 12:16:15;;;;;;;5.57;0.85;;;19.00;99.90;;;;;;4913359;29;20048;-78
2022/10/18 12:18:57;;;;;;;6.78;1.30;;;19.10;99.90;;;;;;4919429;29;20055;-78
2022/10/18 12:21:25;;;;;;;6.28;1.10;;;19.30;99.90;;;;;;4905044;29;20040;-80
2022/10/18 12:24:06;;;;;;;6.40;1.13;;;19.40;99.90;;;;;;4900868;29;21823;-79
2022/10/18 12:26:33;;;;;;;4.63;1.10;;;19.60;99.90;;;;;;4917076;29;20044;-78
2022/10/18 12:29:14;;;;;;;5.75;0.80;;;19.70;99.90;;;;;;4903449;29;20054;-78
2022/10/18 12:31:50;;;;;;;10.55;1.75;;;20.00;99.90;;;;;;4920869;29;20048;-78
2022/10/18 12:34:23;;;;;;;6.03;1.00;;;20.40;99.90;;;;;;4904549;29;20036;-78
2022/10/18 12:37:05;;;;;;;6.18;1.23;;;20.50;99.90;;;;;;4919729;29;20032;-78
2022/10/18 12:39:42;;;;;;;7.50;1.60;;;20.40;99.90;;;;;;4916703;29;20503;-78
2022/10/18 12:42:20;;;;;;;6.55;1.23;;;20.10;99.90;;;;;;4910813;29;20046;-78
2022/10/18 12:44:47;;;;;;;5.72;1.13;;;19.60;99.90;;;;;;4905361;29;20084;-78
2022/10/18 12:47:24;;;;;;;5.80;0.95;;;19.40;99.90;;;;;;4904232;29;20044;-79
2022/10/18 12:50:04;;;;;;;6.13;1.27;;;19.00;99.90;;;;;;4904834;29;20043;-78